Corozal, Belize
Current Conditions -  °F | °C
As of 10:41 PM on Friday 19 Dec 2014 (Local Time) from MMCM Reporting Station
Haze Haze  
Wind Chill: 24°   Ceiling: 200
Heat Index: 24°   Visibility: 3mi
Dew Point: 21°   Wind: 0mph
Humidity: 83%   Direction: NA
Pressure: 29.93"   Gusts: NA
Location:  18.4°N, 88.39°W
Report Text: MMCM 200441Z 00000KT 3SM HZ BKN002 OVC005 24/21 A2993 RMK 6//// 8/5// RTS
Loading
Personal Weather Stations






























Interactive Weather Map New forecast layout! Learn more

10-Day Weather Forecast

Advertisements
Track Severe Weather on mobile